createdAt,value
2023-03-27T00:02:08.830Z,93783.75
2023-03-27T00:04:35.711Z,93775.47
2023-03-27T00:07:03.480Z,93780.72
2023-03-27T00:09:32.011Z,93781.22
2023-03-27T00:11:59.132Z,93781.28
2023-03-27T00:14:25.867Z,93788.22
2023-03-27T00:16:52.672Z,93791.72
2023-03-27T00:19:19.586Z,93787.16
2023-03-27T00:21:46.174Z,93788.50
2023-03-27T00:24:13.868Z,93788.41
2023-03-27T00:26:40.883Z,93781.41
2023-03-27T00:29:08.128Z,93776.44
2023-03-27T00:31:35.595Z,93778.94
2023-03-27T00:34:03.564Z,93790.28
2023-03-27T00:36:31.324Z,93798.72
2023-03-27T00:38:58.012Z,93798.59
2023-03-27T00:41:24.781Z,93794.59
2023-03-27T00:43:54.759Z,93796.84
2023-03-27T00:46:31.944Z,93797.53
2023-03-27T00:49:03.786Z,93794.78
2023-03-27T00:51:31.201Z,93799.94
2023-03-27T00:53:58.689Z,93802.25
2023-03-27T00:56:25.514Z,93806.09
2023-03-27T00:59:00.354Z,93812.94
2023-03-27T01:01:28.908Z,93806.94
2023-03-27T01:03:58.386Z,93806.44
2023-03-27T01:06:25.345Z,93810.78
2023-03-27T01:08:52.342Z,93802.91
2023-03-27T01:11:21.926Z,93800.16
2023-03-27T01:14:04.576Z,93803.19
2023-03-27T01:17:00.993Z,93802.34
2023-03-27T01:20:13.762Z,93798.06
2023-03-27T01:23:06.232Z,93801.78
2023-03-27T01:25:52.908Z,93792.91
2023-03-27T01:28:42.633Z,93801.34
2023-03-27T01:31:18.248Z,93802.66
2023-03-27T01:34:14.937Z,93802.53
2023-03-27T01:36:51.977Z,93799.59
2023-03-27T01:39:30.679Z,93803.16
2023-03-27T01:42:13.353Z,93808.16
2023-03-27T01:45:06.782Z,93804.53
2023-03-27T01:47:55.606Z,93816.13
2023-03-27T01:50:42.291Z,93823.81
2023-03-27T01:53:12.772Z,93829.75
2023-03-27T01:55:45.370Z,93827.09
2023-03-27T01:58:17.937Z,93830.25
2023-03-27T02:01:03.666Z,93827.84
2023-03-27T02:03:39.741Z,93825.41
2023-03-27T02:06:16.368Z,93832.41
2023-03-27T02:08:46.753Z,93827.47
2023-03-27T02:11:17.730Z,93832.47
2023-03-27T02:13:55.856Z,93836.09
2023-03-27T02:16:28.854Z,93833.66
2023-03-27T02:19:01.560Z,93837.13
2023-03-27T02:21:31.250Z,93836.31
2023-03-27T02:24:02.169Z,93840.19
2023-03-27T02:26:30.354Z,93835.25
2023-03-27T02:29:25.007Z,93835.78
2023-03-27T02:31:57.615Z,93835.09
2023-03-27T02:34:40.580Z,93836.56
2023-03-27T02:37:34.519Z,93848.66
2023-03-27T02:40:26.081Z,93846.41
2023-03-27T02:43:08.039Z,93842.59
2023-03-27T02:45:34.687Z,93848.53
2023-03-27T02:48:10.516Z,93852.97
2023-03-27T02:50:44.119Z,93858.59
2023-03-27T02:53:15.474Z,93860.38
2023-03-27T02:55:47.799Z,93856.88
2023-03-27T02:58:21.693Z,93862.78
2023-03-27T03:00:59.751Z,93866.91
2023-03-27T03:03:42.727Z,93864.78
2023-03-27T03:06:29.848Z,93868.13
2023-03-27T03:09:02.284Z,93872.44
2023-03-27T03:11:29.801Z,93883.03
2023-03-27T03:13:57.189Z,93880.09
2023-03-27T03:16:24.039Z,93879.13
2023-03-27T03:18:51.094Z,93889.47
2023-03-27T03:21:18.357Z,93881.53
2023-03-27T03:23:58.172Z,93881.28
2023-03-27T03:26:27.233Z,93890.44
2023-03-27T03:29:00.275Z,93896.47
2023-03-27T03:31:43.278Z,93893.75
2023-03-27T03:34:12.083Z,93897.00
2023-03-27T03:36:38.797Z,93904.25
2023-03-27T03:39:05.731Z,93902.25
2023-03-27T03:41:33.085Z,93908.53
2023-03-27T03:44:01.148Z,93909.06
2023-03-27T03:46:28.185Z,93922.63
2023-03-27T03:48:55.926Z,93916.06
2023-03-27T03:51:24.039Z,93924.78
2023-03-27T03:53:50.865Z,93925.47
2023-03-27T03:56:18.150Z,93927.75
2023-03-27T03:58:44.971Z,93934.19
2023-03-27T04:01:11.682Z,93937.56
2023-03-27T04:03:44.221Z,93943.84
2023-03-27T04:06:11.301Z,93944.09
2023-03-27T04:08:38.280Z,93955.25
2023-03-27T04:11:21.440Z,93945.59
2023-03-27T04:13:59.908Z,93954.16
2023-03-27T04:16:35.158Z,93962.25
2023-03-27T04:19:09.127Z,93969.63
2023-03-27T04:21:38.705Z,93973.94
2023-03-27T04:24:08.290Z,93976.06
2023-03-27T04:26:44.430Z,93981.97
2023-03-27T04:29:31.892Z,94002.38
2023-03-27T04:31:59.391Z,94009.63
2023-03-27T04:34:54.468Z,94009.34
2023-03-27T04:37:43.155Z,94016.31
2023-03-27T04:40:18.173Z,94024.09
2023-03-27T04:42:45.688Z,94031.19
2023-03-27T04:45:15.022Z,94037.09
2023-03-27T04:47:45.200Z,94047.41
2023-03-27T04:50:12.876Z,94060.03
2023-03-27T04:52:39.619Z,94064.31
2023-03-27T04:55:08.554Z,94077.75
2023-03-27T04:57:35.219Z,94083.53
2023-03-27T05:00:16.331Z,94091.53
2023-03-27T05:03:03.535Z,94102.78
2023-03-27T05:05:41.816Z,94106.41
2023-03-27T05:08:09.442Z,94111.06
2023-03-27T05:10:36.155Z,94120.44
2023-03-27T05:13:02.934Z,94130.50
2023-03-27T05:15:32.333Z,94137.19
2023-03-27T05:18:01.310Z,94150.31
2023-03-27T05:20:28.755Z,94148.47
2023-03-27T05:22:58.663Z,94166.09
2023-03-27T05:25:27.923Z,94179.09
2023-03-27T05:27:55.869Z,94181.53
2023-03-27T05:30:27.101Z,94187.91
2023-03-27T05:33:09.229Z,94202.88
2023-03-27T05:35:36.351Z,94207.53
2023-03-27T05:38:04.162Z,94211.25
2023-03-27T05:40:42.571Z,94220.84
2023-03-27T05:43:13.348Z,94229.44
2023-03-27T05:45:40.133Z,94232.81
2023-03-27T05:48:07.392Z,94247.84
2023-03-27T05:50:39.967Z,94249.59
2023-03-27T05:53:16.796Z,94267.09
2023-03-27T05:56:02.357Z,94270.19
2023-03-27T05:58:36.418Z,94290.47
2023-03-27T06:01:03.591Z,94295.31
2023-03-27T06:03:30.524Z,94299.59
2023-03-27T06:06:00.974Z,94316.13
2023-03-27T06:08:34.807Z,94318.81
2023-03-27T06:11:01.378Z,94319.97
2023-03-27T06:13:36.080Z,94326.91
2023-03-27T06:16:09.075Z,94333.38
2023-03-27T06:19:02.889Z,94337.78
2023-03-27T06:21:29.883Z,94353.16
2023-03-27T06:23:59.146Z,94364.16
2023-03-27T06:26:28.298Z,94369.34
2023-03-27T06:28:56.425Z,94371.53
2023-03-27T06:31:23.738Z,94388.06
2023-03-27T06:34:11.018Z,94391.88
2023-03-27T06:36:43.386Z,94402.25
2023-03-27T06:39:11.471Z,94408.28
2023-03-27T06:41:41.803Z,94406.38
2023-03-27T06:44:28.061Z,94421.88
2023-03-27T06:47:18.838Z,94432.97
2023-03-27T06:50:04.468Z,94444.28
2023-03-27T06:52:32.526Z,94446.94
2023-03-27T06:55:14.849Z,94458.00
2023-03-27T06:57:51.923Z,94470.41
2023-03-27T07:00:24.082Z,94478.50
2023-03-27T07:03:14.337Z,94480.72
2023-03-27T07:06:07.540Z,94486.13
2023-03-27T07:08:44.792Z,94496.41
2023-03-27T07:11:12.749Z,94502.53
2023-03-27T07:13:50.802Z,94507.84
2023-03-27T07:16:24.983Z,94513.34
2023-03-27T07:18:51.897Z,94522.75
2023-03-27T07:21:18.598Z,94534.06
2023-03-27T07:23:46.277Z,94537.63
2023-03-27T07:26:17.131Z,94547.16
2023-03-27T07:28:55.947Z,94550.53
2023-03-27T07:33:52.411Z,94568.53
2023-03-27T07:36:28.817Z,94574.19
2023-03-27T07:39:05.005Z,94572.81
2023-03-27T07:41:32.624Z,94583.88
2023-03-27T07:43:59.717Z,94588.25
2023-03-27T07:46:32.818Z,94592.09
2023-03-27T07:49:02.747Z,94604.81
2023-03-27T07:51:29.403Z,94607.59
2023-03-27T07:53:58.947Z,94620.47
2023-03-27T07:56:33.854Z,94621.31
2023-03-27T07:59:24.131Z,94628.75
2023-03-27T08:01:51.741Z,94632.97
2023-03-27T08:04:20.400Z,94640.00
2023-03-27T08:07:02.253Z,94650.06
2023-03-27T08:09:29.575Z,94647.75
2023-03-27T08:11:56.971Z,94663.00
2023-03-27T08:14:26.323Z,94671.34
2023-03-27T08:17:05.180Z,94680.50
2023-03-27T08:19:40.102Z,94692.28
2023-03-27T08:22:07.050Z,94694.75
2023-03-27T08:24:48.089Z,94703.59
2023-03-27T08:27:23.592Z,94708.47
2023-03-27T08:29:51.493Z,94715.69
2023-03-27T08:32:18.428Z,94717.13
2023-03-27T08:34:47.138Z,94729.31
2023-03-27T08:37:18.746Z,94735.53
2023-03-27T08:40:12.551Z,94739.69
2023-03-27T08:42:43.991Z,94742.47
2023-03-27T08:45:37.394Z,94745.41
2023-03-27T08:48:07.251Z,94761.47
2023-03-27T08:50:59.114Z,94764.84
2023-03-27T08:53:48.381Z,94770.72
2023-03-27T08:56:20.984Z,94772.56
2023-03-27T08:58:51.756Z,94774.28
2023-03-27T09:01:38.574Z,94783.94
2023-03-27T09:04:28.874Z,94787.78
2023-03-27T09:07:01.766Z,94790.56
2023-03-27T09:09:44.902Z,94791.59
2023-03-27T09:12:30.389Z,94805.31
2023-03-27T09:15:09.630Z,94800.00
2023-03-27T09:17:44.222Z,94803.34
2023-03-27T09:20:23.974Z,94811.00
2023-03-27T09:22:57.979Z,94818.31
2023-03-27T09:25:53.027Z,94819.56
2023-03-27T09:28:56.131Z,94833.19
2023-03-27T09:31:31.973Z,94835.09
2023-03-27T09:34:05.973Z,94840.50
2023-03-27T09:36:36.848Z,94839.19
2023-03-27T09:39:08.192Z,94844.69
2023-03-27T09:41:44.300Z,94847.72
2023-03-27T09:44:25.510Z,94860.53
2023-03-27T09:47:04.323Z,94860.53
2023-03-27T09:49:31.618Z,94865.53
2023-03-27T09:51:59.424Z,94864.41
2023-03-27T09:54:54.012Z,94867.47
2023-03-27T09:57:37.447Z,94865.13
2023-03-27T10:00:27.647Z,94870.44
2023-03-27T10:03:08.233Z,94875.00
2023-03-27T10:05:38.974Z,94880.19
2023-03-27T10:08:26.755Z,94890.16
2023-03-27T10:11:20.864Z,94895.03
2023-03-27T10:13:52.020Z,94902.69
2023-03-27T10:16:23.148Z,94897.28
2023-03-27T10:19:00.245Z,94914.59
2023-03-27T10:21:39.975Z,94908.06
2023-03-27T10:24:17.381Z,94913.09
2023-03-27T10:27:00.106Z,94925.84
2023-03-27T10:29:31.654Z,94925.63
2023-03-27T10:32:09.937Z,94929.34
2023-03-27T10:34:57.971Z,94936.09
2023-03-27T10:38:30.297Z,94937.97
2023-03-27T10:41:28.551Z,94938.38
2023-03-27T10:43:58.056Z,94945.09
2023-03-27T10:46:30.179Z,94955.38
2023-03-27T10:49:18.516Z,94959.25
2023-03-27T10:51:57.101Z,94964.69
2023-03-27T10:54:41.987Z,94969.91
2023-03-27T10:57:24.410Z,94973.25
2023-03-27T10:59:56.494Z,94974.88
2023-03-27T11:02:43.357Z,94979.03
2023-03-27T11:05:24.167Z,94976.16
2023-03-27T11:07:57.240Z,94987.72
2023-03-27T11:10:31.710Z,94983.69
2023-03-27T11:13:11.777Z,94984.16
2023-03-27T11:15:54.197Z,94987.59
2023-03-27T11:19:00.223Z,94988.78
2023-03-27T11:21:47.322Z,94988.97
2023-03-27T11:24:24.490Z,94995.84
2023-03-27T11:27:06.085Z,95000.09
2023-03-27T11:29:46.378Z,94994.84
2023-03-27T11:32:28.461Z,94994.38
2023-03-27T11:35:11.737Z,94993.97
2023-03-27T11:38:04.020Z,94999.09
2023-03-27T11:40:42.797Z,95005.88
2023-03-27T11:43:12.957Z,95003.94
2023-03-27T11:45:53.070Z,95005.19
2023-03-27T11:49:01.876Z,94999.69
2023-03-27T11:52:08.121Z,95006.56
2023-03-27T11:54:50.063Z,95004.72
2023-03-27T11:57:26.280Z,95008.38
2023-03-27T12:00:25.726Z,95003.50
2023-03-27T12:03:06.793Z,95003.69
2023-03-27T12:05:43.257Z,94998.34
2023-03-27T12:08:51.489Z,95006.31
2023-03-27T12:11:21.647Z,95017.97
2023-03-27T12:14:18.402Z,95020.59
2023-03-27T12:17:28.913Z,95018.63
2023-03-27T12:20:02.224Z,95013.84
2023-03-27T12:22:33.424Z,95019.28
2023-03-27T12:25:28.635Z,95017.59
2023-03-27T12:28:30.571Z,95015.94
2023-03-27T12:31:30.268Z,95025.00
2023-03-27T12:34:12.820Z,95023.38
2023-03-27T12:36:45.655Z,95027.44
2023-03-27T12:39:20.153Z,95027.00
2023-03-27T12:41:46.997Z,95025.53
2023-03-27T12:44:32.306Z,95026.81
2023-03-27T12:47:21.642Z,95024.69
2023-03-27T12:50:01.302Z,95025.09
2023-03-27T12:52:34.320Z,95019.50
2023-03-27T12:55:19.043Z,95026.47
2023-03-27T12:58:00.287Z,95022.16
2023-03-27T13:01:01.241Z,95029.00
2023-03-27T13:04:42.958Z,95039.81
2023-03-27T13:07:27.605Z,95045.59
2023-03-27T13:10:44.591Z,95051.00
2023-03-27T13:13:33.646Z,95048.72
2023-03-27T13:16:37.600Z,95052.75
2023-03-27T13:19:20.445Z,95062.06
2023-03-27T13:22:06.855Z,95063.69
2023-03-27T13:25:12.537Z,95059.53
2023-03-27T13:28:08.554Z,95068.59
2023-03-27T13:30:56.472Z,95084.09
2023-03-27T13:34:27.412Z,95090.88
2023-03-27T13:37:11.168Z,95081.09
2023-03-27T13:39:54.418Z,95089.28
2023-03-27T13:42:27.962Z,95097.38
2023-03-27T13:44:54.517Z,95097.41
2023-03-27T13:47:33.697Z,95100.75
2023-03-27T13:50:19.434Z,95093.13
2023-03-27T13:52:52.721Z,95094.00
2023-03-27T13:56:01.468Z,95091.63
2023-03-27T13:59:00.934Z,95092.22
2023-03-27T14:01:42.357Z,95096.19
2023-03-27T14:04:30.811Z,95094.66
2023-03-27T14:07:10.630Z,95094.25
2023-03-27T14:10:09.323Z,95097.69
2023-03-27T14:12:58.329Z,95098.63
2023-03-27T14:16:05.260Z,95094.50
2023-03-27T14:19:13.222Z,95102.75
2023-03-27T14:22:23.321Z,95107.84
2023-03-27T14:25:00.441Z,95108.78
2023-03-27T14:27:35.034Z,95117.47
2023-03-27T14:30:14.440Z,95103.50
2023-03-27T14:32:43.675Z,95117.75
2023-03-27T14:35:36.158Z,95123.44
2023-03-27T14:38:22.055Z,95128.66
2023-03-27T14:40:52.498Z,95140.09
2023-03-27T14:43:28.102Z,95150.19
2023-03-27T14:46:01.641Z,95157.22
2023-03-27T14:48:39.638Z,95153.34
2023-03-27T14:51:21.165Z,95172.69
2023-03-27T14:53:51.047Z,95180.00
2023-03-27T14:56:38.101Z,95188.63
2023-03-27T14:59:28.540Z,95196.19
2023-03-27T15:02:01.845Z,95204.59
2023-03-27T15:04:30.101Z,95207.28
2023-03-27T15:07:15.477Z,95208.16
2023-03-27T15:10:31.397Z,95202.34
2023-03-27T15:13:09.977Z,95199.00
2023-03-27T15:15:42.947Z,95194.22
2023-03-27T15:18:25.337Z,95185.72
2023-03-27T15:20:55.150Z,95188.38
2023-03-27T15:23:33.660Z,95191.47
2023-03-27T15:26:18.503Z,95182.44
2023-03-27T15:29:23.560Z,95186.97
2023-03-27T15:31:51.983Z,95185.34
2023-03-27T15:34:23.816Z,95182.16
2023-03-27T15:37:01.917Z,95181.53
2023-03-27T15:39:29.454Z,95176.53
2023-03-27T15:42:04.964Z,95176.22
2023-03-27T15:44:33.326Z,95178.88
2023-03-27T15:47:03.403Z,95182.03
2023-03-27T15:49:33.427Z,95188.63
2023-03-27T15:52:21.362Z,95187.59
2023-03-27T15:54:56.493Z,95196.44
2023-03-27T15:57:23.494Z,95196.69
2023-03-27T15:59:53.357Z,95193.31
2023-03-27T16:02:23.677Z,95191.09
2023-03-27T16:04:54.427Z,95190.72
2023-03-27T16:07:25.521Z,95193.28
2023-03-27T16:09:59.705Z,95200.84
2023-03-27T16:12:32.216Z,95208.28
2023-03-27T16:15:00.449Z,95202.88
2023-03-27T16:17:37.540Z,95209.25
2023-03-27T16:20:12.010Z,95210.31
2023-03-27T16:22:39.591Z,95208.59
2023-03-27T16:25:09.113Z,95214.22
2023-03-27T16:27:40.716Z,95211.69
2023-03-27T16:30:09.612Z,95218.72
2023-03-27T16:32:37.006Z,95227.91
2023-03-27T16:35:03.752Z,95225.06
2023-03-27T16:37:30.489Z,95223.50
2023-03-27T16:39:58.210Z,95226.66
2023-03-27T16:42:26.333Z,95236.53
2023-03-27T16:44:53.929Z,95243.06
2023-03-27T16:47:23.096Z,95253.78
2023-03-27T16:50:07.429Z,95252.97
2023-03-27T16:52:37.296Z,95251.44
2023-03-27T16:55:07.164Z,95256.72
2023-03-27T16:57:34.283Z,95265.00
2023-03-27T17:00:01.158Z,95262.63
2023-03-27T17:02:28.836Z,95263.28
2023-03-27T17:04:55.860Z,95266.63
2023-03-27T17:07:24.848Z,95262.78
2023-03-27T17:09:51.761Z,95273.94
2023-03-27T17:12:18.518Z,95272.97
2023-03-27T17:14:45.246Z,95273.66
2023-03-27T17:17:11.945Z,95273.56
2023-03-27T17:19:38.654Z,95290.56
2023-03-27T17:22:05.546Z,95285.03
2023-03-27T17:24:45.764Z,95292.00
2023-03-27T17:27:20.444Z,95294.06
2023-03-27T17:29:47.008Z,95303.50
2023-03-27T17:32:13.556Z,95301.66
2023-03-27T17:34:41.498Z,95303.75
2023-03-27T17:37:08.054Z,95308.50
2023-03-27T17:39:34.686Z,95302.16
2023-03-27T17:42:01.534Z,95302.44
2023-03-27T17:44:28.083Z,95313.66
2023-03-27T17:46:54.831Z,95312.66
2023-03-27T17:49:21.540Z,95316.06
2023-03-27T17:51:48.134Z,95315.22
2023-03-27T17:54:15.332Z,95324.53
2023-03-27T17:56:41.951Z,95322.31
2023-03-27T17:59:10.084Z,95328.97
2023-03-27T18:01:36.843Z,95327.69
2023-03-27T18:04:03.820Z,95335.31
2023-03-27T18:06:30.629Z,95338.34
2023-03-27T18:08:57.296Z,95339.78
2023-03-27T18:11:24.226Z,95342.44
2023-03-27T18:13:53.375Z,95341.00
2023-03-27T18:16:21.672Z,95355.06
2023-03-27T18:18:48.916Z,95356.03
2023-03-27T18:21:16.406Z,95358.59
2023-03-27T18:23:46.353Z,95355.88
2023-03-27T18:26:14.464Z,95353.22
2023-03-27T18:28:41.269Z,95365.69
2023-03-27T18:31:10.063Z,95372.63
2023-03-27T18:33:36.956Z,95369.06
2023-03-27T18:36:05.969Z,95368.88
2023-03-27T18:38:32.597Z,95369.53
2023-03-27T18:40:59.994Z,95374.25
2023-03-27T18:43:27.055Z,95378.78
2023-03-27T18:46:02.222Z,95383.06
2023-03-27T18:48:31.041Z,95401.97
2023-03-27T18:51:05.819Z,95400.22
2023-03-27T18:53:32.737Z,95400.41
2023-03-27T18:56:00.126Z,95414.81
2023-03-27T18:58:28.426Z,95414.28
2023-03-27T19:00:58.681Z,95411.09
2023-03-27T19:03:27.012Z,95415.53
2023-03-27T19:05:53.850Z,95407.63
2023-03-27T19:08:21.985Z,95414.16
2023-03-27T19:10:49.099Z,95408.94
2023-03-27T19:13:36.090Z,95413.47
2023-03-27T19:16:24.650Z,95418.78
2023-03-27T19:19:10.362Z,95423.63
2023-03-27T19:22:00.041Z,95417.56
2023-03-27T19:24:49.143Z,95409.59
2023-03-27T19:27:23.618Z,95412.63
2023-03-27T19:29:51.796Z,95413.75
2023-03-27T19:32:18.430Z,95415.47
2023-03-27T19:34:45.097Z,95415.13
2023-03-27T19:37:12.065Z,95417.88
2023-03-27T19:39:38.619Z,95418.72
2023-03-27T19:42:05.588Z,95417.78
2023-03-27T19:44:35.544Z,95424.28
2023-03-27T19:47:03.659Z,95428.66
2023-03-27T19:49:30.815Z,95430.59
2023-03-27T19:52:12.809Z,95423.78
2023-03-27T19:54:39.423Z,95426.53
2023-03-27T19:57:06.925Z,95435.66
2023-03-27T19:59:33.641Z,95433.69
2023-03-27T20:02:00.592Z,95429.16
2023-03-27T20:04:27.372Z,95439.81
2023-03-27T20:06:58.902Z,95439.34
2023-03-27T20:09:25.728Z,95445.81
2023-03-27T20:11:53.377Z,95442.94
2023-03-27T20:14:20.262Z,95442.88
2023-03-27T20:16:46.947Z,95450.81
2023-03-27T20:19:15.832Z,95444.75
2023-03-27T20:21:43.522Z,95432.13
2023-03-27T20:24:14.467Z,95438.38
2023-03-27T20:26:48.379Z,95433.94
2023-03-27T20:29:21.466Z,95427.22
2023-03-27T20:31:48.559Z,95421.25
2023-03-27T20:34:19.514Z,95425.50
2023-03-27T20:36:46.562Z,95431.31
2023-03-27T20:39:34.139Z,95436.88
2023-03-27T20:42:00.704Z,95423.06
2023-03-27T20:44:36.711Z,95425.31
2023-03-27T20:47:10.691Z,95432.88
2023-03-27T20:49:44.958Z,95426.19
2023-03-27T20:52:14.485Z,95424.16
2023-03-27T20:54:41.679Z,95432.53
2023-03-27T20:57:11.408Z,95432.66
2023-03-27T20:59:38.391Z,95433.50
2023-03-27T21:02:05.256Z,95438.69
2023-03-27T21:04:32.114Z,95441.28
2023-03-27T21:06:58.943Z,95435.84
2023-03-27T21:09:27.152Z,95438.22
2023-03-27T21:11:55.427Z,95448.78
2023-03-27T21:14:22.870Z,95448.25
2023-03-27T21:16:50.300Z,95442.69
2023-03-27T21:19:19.902Z,95446.34
2023-03-27T21:21:46.802Z,95449.78
2023-03-27T21:24:13.511Z,95450.84
2023-03-27T21:26:40.576Z,95443.13
2023-03-27T21:29:10.796Z,95452.97
2023-03-27T21:31:41.412Z,95455.84
2023-03-27T21:34:08.936Z,95454.16
2023-03-27T21:36:38.032Z,95460.50
2023-03-27T21:39:05.220Z,95458.63
2023-03-27T21:41:33.398Z,95463.31
2023-03-27T21:44:00.617Z,95464.31
2023-03-27T21:46:27.284Z,95462.78
2023-03-27T21:48:53.991Z,95457.59
2023-03-27T21:51:20.993Z,95470.78
2023-03-27T21:53:47.799Z,95471.00
2023-03-27T21:56:14.583Z,95477.00
2023-03-27T21:58:41.119Z,95473.00
2023-03-27T22:01:08.219Z,95478.50
2023-03-27T22:03:34.933Z,95486.41
2023-03-27T22:06:12.220Z,95480.16
2023-03-27T22:08:41.958Z,95482.38
2023-03-27T22:11:10.093Z,95484.00
2023-03-27T22:13:37.778Z,95488.16
2023-03-27T22:16:12.608Z,95491.34
2023-03-27T22:18:39.783Z,95487.50
2023-03-27T22:21:14.101Z,95489.81
2023-03-27T22:23:40.927Z,95489.25
2023-03-27T22:26:07.583Z,95481.19
2023-03-27T22:28:34.226Z,95485.75
2023-03-27T22:31:01.006Z,95498.22
2023-03-27T22:33:27.619Z,95515.16
2023-03-27T22:35:54.534Z,95510.97
2023-03-27T22:38:21.339Z,95524.06
2023-03-27T22:40:47.971Z,95519.56
2023-03-27T22:43:22.652Z,95522.56
2023-03-27T22:45:51.084Z,95530.25
2023-03-27T22:48:17.696Z,95529.91
2023-03-27T22:50:45.693Z,95532.06
2023-03-27T22:53:12.388Z,95529.13
2023-03-27T22:55:38.884Z,95536.63
2023-03-27T22:58:05.694Z,95538.69
2023-03-27T23:00:32.210Z,95539.75
2023-03-27T23:02:58.886Z,95537.81
2023-03-27T23:05:25.570Z,95545.72
2023-03-27T23:07:52.151Z,95540.97
2023-03-27T23:10:18.914Z,95549.31
2023-03-27T23:12:45.448Z,95549.66
2023-03-27T23:15:12.389Z,95544.59
2023-03-27T23:17:38.900Z,95550.06
2023-03-27T23:20:06.265Z,95553.66
2023-03-27T23:22:32.802Z,95548.88
2023-03-27T23:24:59.318Z,95548.31
2023-03-27T23:27:26.325Z,95550.88
2023-03-27T23:29:55.580Z,95555.34
2023-03-27T23:32:22.339Z,95550.38
2023-03-27T23:34:49.131Z,95554.75
2023-03-27T23:37:15.714Z,95566.34
2023-03-27T23:39:42.434Z,95563.41
2023-03-27T23:42:08.969Z,95560.59
2023-03-27T23:44:35.747Z,95565.94
2023-03-27T23:47:02.413Z,95566.25
2023-03-27T23:49:28.948Z,95570.34
2023-03-27T23:51:55.855Z,95580.56
2023-03-27T23:54:22.706Z,95582.63
2023-03-27T23:56:49.256Z,95585.16
2023-03-27T23:59:15.977Z,95584.09
